sensor_id;sensor_type;location;lat;lon;timestamp;temperature;humidity
21193;DHT22;10754;51.106;7.164;2023-04-25T00:01:11;10.90;1.00
21193;DHT22;10754;51.106;7.164;2023-04-25T00:03:38;10.90;1.00
21193;DHT22;10754;51.106;7.164;2023-04-25T00:06:04;10.90;1.00
21193;DHT22;10754;51.106;7.164;2023-04-25T00:08:30;10.90;1.00
21193;DHT22;10754;51.106;7.164;2023-04-25T00:10:56;10.90;1.00
21193;DHT22;10754;51.106;7.164;2023-04-25T00:13:22;10.90;1.00
21193;DHT22;10754;51.106;7.164;2023-04-25T00:15:48;10.90;1.00
21193;DHT22;10754;51.106;7.164;2023-04-25T00:18:14;10.80;1.00
21193;DHT22;10754;51.106;7.164;2023-04-25T00:20:40;10.80;1.00
21193;DHT22;10754;51.106;7.164;2023-04-25T00:23:05;10.80;1.00
21193;DHT22;10754;51.106;7.164;2023-04-25T00:25:31;10.80;1.00
21193;DHT22;10754;51.106;7.164;2023-04-25T00:27:57;10.80;1.00
21193;DHT22;10754;51.106;7.164;2023-04-25T00:30:22;10.70;1.00
21193;DHT22;10754;51.106;7.164;2023-04-25T00:32:48;10.70;1.00
21193;DHT22;10754;51.106;7.164;2023-04-25T00:35:14;10.70;1.00
21193;DHT22;10754;51.106;7.164;2023-04-25T00:37:39;10.70;1.00
21193;DHT22;10754;51.106;7.164;2023-04-25T00:40:06;10.70;1.00
21193;DHT22;10754;51.106;7.164;2023-04-25T00:42:33;10.70;1.00
21193;DHT22;10754;51.106;7.164;2023-04-25T00:44:59;10.60;1.00
21193;DHT22;10754;51.106;7.164;2023-04-25T00:47:25;10.60;1.00
21193;DHT22;10754;51.106;7.164;2023-04-25T00:49:51;10.60;1.00
21193;DHT22;10754;51.106;7.164;2023-04-25T00:52:18;10.60;1.00
21193;DHT22;10754;51.106;7.164;2023-04-25T00:54:44;10.50;1.00
21193;DHT22;10754;51.106;7.164;2023-04-25T00:57:10;10.50;1.00
21193;DHT22;10754;51.106;7.164;2023-04-25T00:59:37;10.50;1.00
21193;DHT22;10754;51.106;7.164;2023-04-25T01:02:04;10.50;1.00
21193;DHT22;10754;51.106;7.164;2023-04-25T01:04:30;10.50;1.00
21193;DHT22;10754;51.106;7.164;2023-04-25T01:06:55;10.50;1.00
21193;DHT22;10754;51.106;7.164;2023-04-25T01:09:22;10.50;1.00
21193;DHT22;10754;51.106;7.164;2023-04-25T01:11:48;10.50;1.00
21193;DHT22;10754;51.106;7.164;2023-04-25T01:14:14;10.50;1.00
21193;DHT22;10754;51.106;7.164;2023-04-25T01:16:40;10.50;1.00
21193;DHT22;10754;51.106;7.164;2023-04-25T01:19:09;10.50;1.00
21193;DHT22;10754;51.106;7.164;2023-04-25T01:21:38;10.50;1.00
21193;DHT22;10754;51.106;7.164;2023-04-25T01:24:04;10.50;1.00
21193;DHT22;10754;51.106;7.164;2023-04-25T01:26:30;10.50;1.00
21193;DHT22;10754;51.106;7.164;2023-04-25T01:28:56;10.50;1.00
21193;DHT22;10754;51.106;7.164;2023-04-25T01:31:23;10.50;1.00
21193;DHT22;10754;51.106;7.164;2023-04-25T01:33:49;10.50;1.00
21193;DHT22;10754;51.106;7.164;2023-04-25T01:36:15;10.60;1.00
21193;DHT22;10754;51.106;7.164;2023-04-25T01:38:40;10.60;1.00
21193;DHT22;10754;51.106;7.164;2023-04-25T01:41:07;10.60;1.00
21193;DHT22;10754;51.106;7.164;2023-04-25T01:43:32;10.60;1.00
21193;DHT22;10754;51.106;7.164;2023-04-25T01:45:58;10.70;1.00
21193;DHT22;10754;51.106;7.164;2023-04-25T01:48:24;10.70;1.00
21193;DHT22;10754;51.106;7.164;2023-04-25T01:50:50;10.70;1.00
21193;DHT22;10754;51.106;7.164;2023-04-25T01:53:15;10.70;1.00
21193;DHT22;10754;51.106;7.164;2023-04-25T01:55:41;10.80;1.00
21193;DHT22;10754;51.106;7.164;2023-04-25T01:58:06;10.80;1.00
21193;DHT22;10754;51.106;7.164;2023-04-25T02:00:35;10.80;1.00
21193;DHT22;10754;51.106;7.164;2023-04-25T02:03:03;10.80;1.00
21193;DHT22;10754;51.106;7.164;2023-04-25T02:05:33;10.90;1.00
21193;DHT22;10754;51.106;7.164;2023-04-25T02:07:58;10.90;1.00
21193;DHT22;10754;51.106;7.164;2023-04-25T02:10:24;10.90;1.00
21193;DHT22;10754;51.106;7.164;2023-04-25T02:12:50;10.90;1.00
21193;DHT22;10754;51.106;7.164;2023-04-25T02:15:15;10.90;1.00
21193;DHT22;10754;51.106;7.164;2023-04-25T02:17:41;10.90;1.00
21193;DHT22;10754;51.106;7.164;2023-04-25T02:20:06;10.90;1.00
21193;DHT22;10754;51.106;7.164;2023-04-25T02:22:32;10.90;1.00
21193;DHT22;10754;51.106;7.164;2023-04-25T02:24:59;10.90;1.00
21193;DHT22;10754;51.106;7.164;2023-04-25T02:27:24;10.90;1.00
21193;DHT22;10754;51.106;7.164;2023-04-25T02:29:50;11.00;1.00
21193;DHT22;10754;51.106;7.164;2023-04-25T02:32:15;11.00;1.00
21193;DHT22;10754;51.106;7.164;2023-04-25T02:34:41;11.00;1.00
21193;DHT22;10754;51.106;7.164;2023-04-25T02:37:06;11.00;1.00
21193;DHT22;10754;51.106;7.164;2023-04-25T02:39:32;11.00;1.00
21193;DHT22;10754;51.106;7.164;2023-04-25T02:41:57;11.00;1.00
21193;DHT22;10754;51.106;7.164;2023-04-25T02:44:23;11.10;1.00
21193;DHT22;10754;51.106;7.164;2023-04-25T02:46:48;11.10;1.00
21193;DHT22;10754;51.106;7.164;2023-04-25T02:49:14;11.10;1.00
21193;DHT22;10754;51.106;7.164;2023-04-25T02:51:39;11.10;1.00
21193;DHT22;10754;51.106;7.164;2023-04-25T02:54:05;11.10;1.00
21193;DHT22;10754;51.106;7.164;2023-04-25T02:56:31;11.10;1.00
21193;DHT22;10754;51.106;7.164;2023-04-25T02:58:57;11.10;1.00
21193;DHT22;10754;51.106;7.164;2023-04-25T03:01:22;11.10;1.00
21193;DHT22;10754;51.106;7.164;2023-04-25T03:03:48;11.10;1.00
21193;DHT22;10754;51.106;7.164;2023-04-25T03:06:14;11.10;1.00
21193;DHT22;10754;51.106;7.164;2023-04-25T03:08:40;11.10;1.00
21193;DHT22;10754;51.106;7.164;2023-04-25T03:11:06;11.10;1.00
21193;DHT22;10754;51.106;7.164;2023-04-25T03:13:31;11.10;1.00
21193;DHT22;10754;51.106;7.164;2023-04-25T03:15:57;11.10;1.00
21193;DHT22;10754;51.106;7.164;2023-04-25T03:18:22;11.10;1.00
21193;DHT22;10754;51.106;7.164;2023-04-25T03:20:48;11.10;1.00
21193;DHT22;10754;51.106;7.164;2023-04-25T03:23:14;11.20;1.00
21193;DHT22;10754;51.106;7.164;2023-04-25T03:25:39;11.20;1.00
21193;DHT22;10754;51.106;7.164;2023-04-25T03:28:05;11.20;1.00
21193;DHT22;10754;51.106;7.164;2023-04-25T03:30:31;11.20;1.00
21193;DHT22;10754;51.106;7.164;2023-04-25T03:32:56;11.20;1.00
21193;DHT22;10754;51.106;7.164;2023-04-25T03:35:22;11.20;1.00
21193;DHT22;10754;51.106;7.164;2023-04-25T03:37:49;11.20;1.00
21193;DHT22;10754;51.106;7.164;2023-04-25T03:40:14;11.20;1.00
21193;DHT22;10754;51.106;7.164;2023-04-25T03:42:40;11.20;1.00
21193;DHT22;10754;51.106;7.164;2023-04-25T03:45:06;11.30;1.00
21193;DHT22;10754;51.106;7.164;2023-04-25T03:47:32;11.30;1.00
21193;DHT22;10754;51.106;7.164;2023-04-25T03:49:57;11.30;1.00
21193;DHT22;10754;51.106;7.164;2023-04-25T03:52:23;11.30;1.00
21193;DHT22;10754;51.106;7.164;2023-04-25T03:54:48;11.30;1.00
21193;DHT22;10754;51.106;7.164;2023-04-25T03:57:14;11.30;1.00
21193;DHT22;10754;51.106;7.164;2023-04-25T03:59:39;11.30;1.00
21193;DHT22;10754;51.106;7.164;2023-04-25T04:02:05;11.30;1.00
21193;DHT22;10754;51.106;7.164;2023-04-25T04:04:30;11.30;1.00
21193;DHT22;10754;51.106;7.164;2023-04-25T04:06:56;11.30;1.00
21193;DHT22;10754;51.106;7.164;2023-04-25T04:09:22;11.30;1.00
21193;DHT22;10754;51.106;7.164;2023-04-25T04:11:47;11.30;1.00
21193;DHT22;10754;51.106;7.164;2023-04-25T04:14:13;11.30;1.00
21193;DHT22;10754;51.106;7.164;2023-04-25T04:16:38;11.30;1.00
21193;DHT22;10754;51.106;7.164;2023-04-25T04:19:04;11.40;1.00
21193;DHT22;10754;51.106;7.164;2023-04-25T04:21:29;11.30;1.00
21193;DHT22;10754;51.106;7.164;2023-04-25T04:23:55;11.40;1.00
21193;DHT22;10754;51.106;7.164;2023-04-25T04:26:21;11.40;1.00
21193;DHT22;10754;51.106;7.164;2023-04-25T04:28:50;11.40;1.00
21193;DHT22;10754;51.106;7.164;2023-04-25T04:31:20;11.40;1.00
21193;DHT22;10754;51.106;7.164;2023-04-25T04:33:46;11.30;1.00
21193;DHT22;10754;51.106;7.164;2023-04-25T04:36:12;11.30;1.00
21193;DHT22;10754;51.106;7.164;2023-04-25T04:38:38;11.30;1.00
21193;DHT22;10754;51.106;7.164;2023-04-25T04:41:05;11.30;1.00
21193;DHT22;10754;51.106;7.164;2023-04-25T04:43:31;11.30;1.00
21193;DHT22;10754;51.106;7.164;2023-04-25T04:46:00;11.30;1.00
21193;DHT22;10754;51.106;7.164;2023-04-25T04:48:25;11.30;1.00
21193;DHT22;10754;51.106;7.164;2023-04-25T04:50:51;11.30;1.00
21193;DHT22;10754;51.106;7.164;2023-04-25T04:53:17;11.40;1.00
21193;DHT22;10754;51.106;7.164;2023-04-25T04:55:42;11.40;1.00
21193;DHT22;10754;51.106;7.164;2023-04-25T04:58:08;11.40;1.00
21193;DHT22;10754;51.106;7.164;2023-04-25T05:00:34;11.40;1.00
21193;DHT22;10754;51.106;7.164;2023-04-25T05:02:59;11.40;1.00
21193;DHT22;10754;51.106;7.164;2023-04-25T05:05:25;11.40;1.00
21193;DHT22;10754;51.106;7.164;2023-04-25T05:07:51;11.30;1.00
21193;DHT22;10754;51.106;7.164;2023-04-25T05:10:18;11.30;1.00
21193;DHT22;10754;51.106;7.164;2023-04-25T05:12:43;11.40;1.00
21193;DHT22;10754;51.106;7.164;2023-04-25T05:15:09;11.40;1.00
21193;DHT22;10754;51.106;7.164;2023-04-25T05:17:35;11.40;1.00
21193;DHT22;10754;51.106;7.164;2023-04-25T05:20:00;11.30;1.00
21193;DHT22;10754;51.106;7.164;2023-04-25T05:22:26;11.30;1.00
21193;DHT22;10754;51.106;7.164;2023-04-25T05:24:52;11.30;1.00
21193;DHT22;10754;51.106;7.164;2023-04-25T05:27:19;11.40;1.00
21193;DHT22;10754;51.106;7.164;2023-04-25T05:29:45;11.30;1.00
21193;DHT22;10754;51.106;7.164;2023-04-25T05:32:10;11.30;1.00
21193;DHT22;10754;51.106;7.164;2023-04-25T05:34:36;11.30;1.00
21193;DHT22;10754;51.106;7.164;2023-04-25T05:37:02;11.30;1.00
21193;DHT22;10754;51.106;7.164;2023-04-25T05:39:27;11.30;1.00
21193;DHT22;10754;51.106;7.164;2023-04-25T05:41:53;11.30;1.00
21193;DHT22;10754;51.106;7.164;2023-04-25T05:44:19;11.30;1.00
21193;DHT22;10754;51.106;7.164;2023-04-25T05:46:44;11.30;1.00
21193;DHT22;10754;51.106;7.164;2023-04-25T05:49:10;11.30;1.00
21193;DHT22;10754;51.106;7.164;2023-04-25T05:51:35;11.40;1.00
21193;DHT22;10754;51.106;7.164;2023-04-25T05:54:01;11.40;1.00
21193;DHT22;10754;51.106;7.164;2023-04-25T05:56:26;11.40;1.00
21193;DHT22;10754;51.106;7.164;2023-04-25T05:58:52;11.40;1.00
21193;DHT22;10754;51.106;7.164;2023-04-25T06:01:18;11.40;1.00
21193;DHT22;10754;51.106;7.164;2023-04-25T06:03:44;11.40;1.00
21193;DHT22;10754;51.106;7.164;2023-04-25T06:06:11;11.40;1.00
21193;DHT22;10754;51.106;7.164;2023-04-25T06:08:37;11.40;1.00
21193;DHT22;10754;51.106;7.164;2023-04-25T06:11:03;11.30;1.00
21193;DHT22;10754;51.106;7.164;2023-04-25T06:13:29;11.30;1.00
21193;DHT22;10754;51.106;7.164;2023-04-25T06:15:55;11.40;1.00
21193;DHT22;10754;51.106;7.164;2023-04-25T06:18:20;11.40;1.00
21193;DHT22;10754;51.106;7.164;2023-04-25T06:20:46;11.50;1.00
21193;DHT22;10754;51.106;7.164;2023-04-25T06:23:11;11.60;1.00
21193;DHT22;10754;51.106;7.164;2023-04-25T06:25:37;11.70;1.00
21193;DHT22;10754;51.106;7.164;2023-04-25T06:28:02;11.70;1.00
21193;DHT22;10754;51.106;7.164;2023-04-25T06:30:28;11.70;1.00
21193;DHT22;10754;51.106;7.164;2023-04-25T06:32:53;11.80;1.00
21193;DHT22;10754;51.106;7.164;2023-04-25T06:35:19;11.80;1.00
21193;DHT22;10754;51.106;7.164;2023-04-25T06:37:45;11.80;1.00
21193;DHT22;10754;51.106;7.164;2023-04-25T06:40:10;11.90;1.00
21193;DHT22;10754;51.106;7.164;2023-04-25T06:42:36;12.00;1.00
21193;DHT22;10754;51.106;7.164;2023-04-25T06:45:02;12.00;1.00
21193;DHT22;10754;51.106;7.164;2023-04-25T06:47:28;12.00;1.00
21193;DHT22;10754;51.106;7.164;2023-04-25T06:49:55;12.10;1.00
21193;DHT22;10754;51.106;7.164;2023-04-25T06:52:20;12.10;1.00
21193;DHT22;10754;51.106;7.164;2023-04-25T06:54:46;12.20;1.00
21193;DHT22;10754;51.106;7.164;2023-04-25T06:57:11;12.20;1.00
21193;DHT22;10754;51.106;7.164;2023-04-25T06:59:37;12.30;1.00
21193;DHT22;10754;51.106;7.164;2023-04-25T07:02:02;12.30;1.00
21193;DHT22;10754;51.106;7.164;2023-04-25T07:04:29;12.40;1.00
21193;DHT22;10754;51.106;7.164;2023-04-25T07:06:55;12.40;1.00
21193;DHT22;10754;51.106;7.164;2023-04-25T07:09:21;12.30;1.00
21193;DHT22;10754;51.106;7.164;2023-04-25T07:11:47;12.30;1.00
21193;DHT22;10754;51.106;7.164;2023-04-25T07:14:12;12.30;1.00
21193;DHT22;10754;51.106;7.164;2023-04-25T07:16:38;12.30;1.00
21193;DHT22;10754;51.106;7.164;2023-04-25T07:19:03;12.20;1.00
21193;DHT22;10754;51.106;7.164;2023-04-25T07:21:29;12.30;1.00
21193;DHT22;10754;51.106;7.164;2023-04-25T07:23:56;12.40;1.00
21193;DHT22;10754;51.106;7.164;2023-04-25T07:26:22;12.60;1.00
21193;DHT22;10754;51.106;7.164;2023-04-25T07:28:47;12.70;1.00
21193;DHT22;10754;51.106;7.164;2023-04-25T07:31:16;12.60;1.00
21193;DHT22;10754;51.106;7.164;2023-04-25T07:33:43;12.50;1.00
21193;DHT22;10754;51.106;7.164;2023-04-25T07:36:09;12.60;1.00
21193;DHT22;10754;51.106;7.164;2023-04-25T07:38:35;12.60;1.00
21193;DHT22;10754;51.106;7.164;2023-04-25T07:41:00;12.60;1.00
21193;DHT22;10754;51.106;7.164;2023-04-25T07:43:26;12.50;1.00
21193;DHT22;10754;51.106;7.164;2023-04-25T07:45:52;12.50;1.00
21193;DHT22;10754;51.106;7.164;2023-04-25T07:48:18;12.50;1.00
21193;DHT22;10754;51.106;7.164;2023-04-25T07:50:44;12.80;1.00
21193;DHT22;10754;51.106;7.164;2023-04-25T07:53:09;12.80;1.00
21193;DHT22;10754;51.106;7.164;2023-04-25T07:55:35;12.70;1.00
21193;DHT22;10754;51.106;7.164;2023-04-25T07:58:01;12.80;1.00
21193;DHT22;10754;51.106;7.164;2023-04-25T08:00:28;12.90;1.00
21193;DHT22;10754;51.106;7.164;2023-04-25T08:02:54;12.90;1.00
21193;DHT22;10754;51.106;7.164;2023-04-25T08:05:19;13.00;1.00
21193;DHT22;10754;51.106;7.164;2023-04-25T08:07:45;13.10;1.00
21193;DHT22;10754;51.106;7.164;2023-04-25T08:10:10;13.10;1.00
21193;DHT22;10754;51.106;7.164;2023-04-25T08:12:36;13.00;1.00
21193;DHT22;10754;51.106;7.164;2023-04-25T08:15:02;13.10;1.00
21193;DHT22;10754;51.106;7.164;2023-04-25T08:17:27;13.10;1.00
21193;DHT22;10754;51.106;7.164;2023-04-25T08:19:53;13.10;1.00
21193;DHT22;10754;51.106;7.164;2023-04-25T08:22:18;13.20;1.00
21193;DHT22;10754;51.106;7.164;2023-04-25T08:24:44;13.10;1.00
21193;DHT22;10754;51.106;7.164;2023-04-25T08:27:09;12.90;1.00
21193;DHT22;10754;51.106;7.164;2023-04-25T08:29:35;12.90;1.00
21193;DHT22;10754;51.106;7.164;2023-04-25T08:32:00;12.90;1.00
21193;DHT22;10754;51.106;7.164;2023-04-25T08:34:26;12.80;1.00
21193;DHT22;10754;51.106;7.164;2023-04-25T08:36:52;12.80;1.00
21193;DHT22;10754;51.106;7.164;2023-04-25T08:39:18;12.90;1.00
21193;DHT22;10754;51.106;7.164;2023-04-25T08:41:43;12.90;1.00
21193;DHT22;10754;51.106;7.164;2023-04-25T08:44:11;12.80;1.00
21193;DHT22;10754;51.106;7.164;2023-04-25T08:46:38;12.80;1.00
21193;DHT22;10754;51.106;7.164;2023-04-25T08:49:06;12.80;1.00
21193;DHT22;10754;51.106;7.164;2023-04-25T08:51:32;12.80;1.00
21193;DHT22;10754;51.106;7.164;2023-04-25T08:54:08;12.70;1.00
21193;DHT22;10754;51.106;7.164;2023-04-25T08:56:36;12.80;1.00
21193;DHT22;10754;51.106;7.164;2023-04-25T08:59:03;12.80;1.00
21193;DHT22;10754;51.106;7.164;2023-04-25T09:01:28;12.80;1.00
21193;DHT22;10754;51.106;7.164;2023-04-25T09:03:54;13.00;1.00
21193;DHT22;10754;51.106;7.164;2023-04-25T09:06:20;12.90;1.00
21193;DHT22;10754;51.106;7.164;2023-04-25T09:08:45;13.00;1.00
21193;DHT22;10754;51.106;7.164;2023-04-25T09:11:12;13.20;1.00
21193;DHT22;10754;51.106;7.164;2023-04-25T09:13:38;13.30;1.00
21193;DHT22;10754;51.106;7.164;2023-04-25T09:16:04;13.30;1.00
21193;DHT22;10754;51.106;7.164;2023-04-25T09:18:34;13.50;1.00
21193;DHT22;10754;51.106;7.164;2023-04-25T09:21:08;13.50;1.00
21193;DHT22;10754;51.106;7.164;2023-04-25T09:23:47;13.40;1.00
21193;DHT22;10754;51.106;7.164;2023-04-25T09:26:19;13.30;1.00
21193;DHT22;10754;51.106;7.164;2023-04-25T09:28:45;13.00;1.00
21193;DHT22;10754;51.106;7.164;2023-04-25T09:31:24;13.20;1.00
21193;DHT22;10754;51.106;7.164;2023-04-25T09:33:49;13.30;1.00
21193;DHT22;10754;51.106;7.164;2023-04-25T09:36:15;13.00;1.00
21193;DHT22;10754;51.106;7.164;2023-04-25T09:41:08;13.30;1.00
21193;DHT22;10754;51.106;7.164;2023-04-25T09:43:34;13.30;1.00
21193;DHT22;10754;51.106;7.164;2023-04-25T09:46:00;13.40;1.00
21193;DHT22;10754;51.106;7.164;2023-04-25T09:48:27;13.50;1.00
21193;DHT22;10754;51.106;7.164;2023-04-25T09:51:06;13.50;1.00
21193;DHT22;10754;51.106;7.164;2023-04-25T09:53:40;13.60;1.00
21193;DHT22;10754;51.106;7.164;2023-04-25T09:56:07;13.60;1.00
21193;DHT22;10754;51.106;7.164;2023-04-25T09:58:34;13.60;1.00
21193;DHT22;10754;51.106;7.164;2023-04-25T10:01:05;13.70;1.00
21193;DHT22;10754;51.106;7.164;2023-04-25T10:03:32;13.90;1.00
21193;DHT22;10754;51.106;7.164;2023-04-25T10:06:07;14.00;1.00
21193;DHT22;10754;51.106;7.164;2023-04-25T10:08:35;14.20;1.00
21193;DHT22;10754;51.106;7.164;2023-04-25T10:11:03;14.30;99.90
21193;DHT22;10754;51.106;7.164;2023-04-25T10:13:30;14.20;99.90
21193;DHT22;10754;51.106;7.164;2023-04-25T10:16:00;14.30;99.90
21193;DHT22;10754;51.106;7.164;2023-04-25T10:18:27;14.30;99.90
21193;DHT22;10754;51.106;7.164;2023-04-25T10:20:58;14.50;99.90
21193;DHT22;10754;51.106;7.164;2023-04-25T10:23:25;14.70;1.00
21193;DHT22;10754;51.106;7.164;2023-04-25T10:25:52;14.70;99.90
21193;DHT22;10754;51.106;7.164;2023-04-25T10:28:18;14.80;1.00
21193;DHT22;10754;51.106;7.164;2023-04-25T10:31:00;14.70;99.90
21193;DHT22;10754;51.106;7.164;2023-04-25T10:33:33;14.70;1.00
21193;DHT22;10754;51.106;7.164;2023-04-25T10:36:17;14.50;99.90
21193;DHT22;10754;51.106;7.164;2023-04-25T10:38:43;14.50;1.40
21193;DHT22;10754;51.106;7.164;2023-04-25T10:41:10;14.40;99.90
21193;DHT22;10754;51.106;7.164;2023-04-25T10:43:43;14.40;99.90
21193;DHT22;10754;51.106;7.164;2023-04-25T10:48:50;14.30;99.90
21193;DHT22;10754;51.106;7.164;2023-04-25T10:51:22;14.40;99.90
21193;DHT22;10754;51.106;7.164;2023-04-25T10:54:02;14.40;99.90
21193;DHT22;10754;51.106;7.164;2023-04-25T10:56:32;14.40;99.90
21193;DHT22;10754;51.106;7.164;2023-04-25T10:59:08;14.60;99.90
21193;DHT22;10754;51.106;7.164;2023-04-25T11:01:37;14.60;99.90
21193;DHT22;10754;51.106;7.164;2023-04-25T11:04:03;14.70;99.90
21193;DHT22;10754;51.106;7.164;2023-04-25T11:09:00;14.80;99.90
21193;DHT22;10754;51.106;7.164;2023-04-25T11:11:26;14.90;99.90
21193;DHT22;10754;51.106;7.164;2023-04-25T11:13:52;14.90;99.90
21193;DHT22;10754;51.106;7.164;2023-04-25T11:16:17;15.00;99.90
21193;DHT22;10754;51.106;7.164;2023-04-25T11:18:44;15.10;99.90
21193;DHT22;10754;51.106;7.164;2023-04-25T11:21:10;15.20;99.90
21193;DHT22;10754;51.106;7.164;2023-04-25T11:23:36;15.30;99.90
21193;DHT22;10754;51.106;7.164;2023-04-25T11:26:02;15.30;99.90
21193;DHT22;10754;51.106;7.164;2023-04-25T11:28:28;15.50;99.90
21193;DHT22;10754;51.106;7.164;2023-04-25T11:30:54;15.50;99.90
21193;DHT22;10754;51.106;7.164;2023-04-25T11:33:23;15.70;99.90
21193;DHT22;10754;51.106;7.164;2023-04-25T11:35:51;15.70;99.90
21193;DHT22;10754;51.106;7.164;2023-04-25T11:38:18;15.90;99.90
21193;DHT22;10754;51.106;7.164;2023-04-25T11:40:43;16.20;99.90
21193;DHT22;10754;51.106;7.164;2023-04-25T11:43:09;16.50;99.90
21193;DHT22;10754;51.106;7.164;2023-04-25T11:45:36;16.60;99.90
21193;DHT22;10754;51.106;7.164;2023-04-25T11:48:02;17.00;99.90
21193;DHT22;10754;51.106;7.164;2023-04-25T11:50:28;17.40;99.90
21193;DHT22;10754;51.106;7.164;2023-04-25T11:52:56;17.80;99.90
21193;DHT22;10754;51.106;7.164;2023-04-25T11:55:22;18.20;99.90
21193;DHT22;10754;51.106;7.164;2023-04-25T11:57:49;18.30;99.90
21193;DHT22;10754;51.106;7.164;2023-04-25T12:00:17;18.60;99.90
21193;DHT22;10754;51.106;7.164;2023-04-25T12:02:44;18.60;99.90
21193;DHT22;10754;51.106;7.164;2023-04-25T12:05:11;18.70;99.90
21193;DHT22;10754;51.106;7.164;2023-04-25T12:07:37;18.70;99.90
21193;DHT22;10754;51.106;7.164;2023-04-25T12:10:11;18.90;99.90
21193;DHT22;10754;51.106;7.164;2023-04-25T12:12:38;19.70;99.90
21193;DHT22;10754;51.106;7.164;2023-04-25T12:15:13;20.40;99.90
21193;DHT22;10754;51.106;7.164;2023-04-25T12:17:46;20.20;99.90
21193;DHT22;10754;51.106;7.164;2023-04-25T12:20:32;20.20;99.90
21193;DHT22;10754;51.106;7.164;2023-04-25T12:22:58;19.60;99.90
21193;DHT22;10754;51.106;7.164;2023-04-25T12:25:40;19.20;99.90
21193;DHT22;10754;51.106;7.164;2023-04-25T12:28:11;18.90;99.90
21193;DHT22;10754;51.106;7.164;2023-04-25T12:30:59;18.80;99.90
21193;DHT22;10754;51.106;7.164;2023-04-25T12:33:26;18.40;99.90
21193;DHT22;10754;51.106;7.164;2023-04-25T12:35:53;18.10;99.90
21193;DHT22;10754;51.106;7.164;2023-04-25T12:38:29;18.10;99.90
21193;DHT22;10754;51.106;7.164;2023-04-25T12:40:56;18.00;99.90
21193;DHT22;10754;51.106;7.164;2023-04-25T12:43:22;17.60;99.90
21193;DHT22;10754;51.106;7.164;2023-04-25T12:45:52;17.50;99.90
21193;DHT22;10754;51.106;7.164;2023-04-25T12:48:19;17.40;99.90
21193;DHT22;10754;51.106;7.164;2023-04-25T12:50:45;17.30;99.90
21193;DHT22;10754;51.106;7.164;2023-04-25T12:53:14;17.20;99.90
21193;DHT22;10754;51.106;7.164;2023-04-25T12:55:40;17.10;99.90
21193;DHT22;10754;51.106;7.164;2023-04-25T12:58:05;17.00;99.90
21193;DHT22;10754;51.106;7.164;2023-04-25T13:00:31;16.90;99.90
21193;DHT22;10754;51.106;7.164;2023-04-25T13:02:57;16.80;99.90
21193;DHT22;10754;51.106;7.164;2023-04-25T13:05:22;16.70;99.90
21193;DHT22;10754;51.106;7.164;2023-04-25T13:07:48;16.60;99.90
21193;DHT22;10754;51.106;7.164;2023-04-25T13:10:14;16.50;99.90
21193;DHT22;10754;51.106;7.164;2023-04-25T13:12:39;16.30;99.90
21193;DHT22;10754;51.106;7.164;2023-04-25T13:15:05;16.30;99.90
21193;DHT22;10754;51.106;7.164;2023-04-25T13:17:32;16.40;99.90
21193;DHT22;10754;51.106;7.164;2023-04-25T13:19:57;16.50;99.90
21193;DHT22;10754;51.106;7.164;2023-04-25T13:22:23;16.20;99.90
21193;DHT22;10754;51.106;7.164;2023-04-25T13:24:48;16.10;99.90
21193;DHT22;10754;51.106;7.164;2023-04-25T13:27:14;16.00;99.90
21193;DHT22;10754;51.106;7.164;2023-04-25T13:29:39;16.10;99.90
21193;DHT22;10754;51.106;7.164;2023-04-25T13:32:06;16.70;99.90
21193;DHT22;10754;51.106;7.164;2023-04-25T13:34:32;17.60;99.90
21193;DHT22;10754;51.106;7.164;2023-04-25T13:36:57;18.30;99.90
21193;DHT22;10754;51.106;7.164;2023-04-25T13:39:23;18.90;99.90
21193;DHT22;10754;51.106;7.164;2023-04-25T13:41:48;19.40;99.90
21193;DHT22;10754;51.106;7.164;2023-04-25T13:44:14;19.80;99.90
21193;DHT22;10754;51.106;7.164;2023-04-25T13:46:39;20.10;99.90
21193;DHT22;10754;51.106;7.164;2023-04-25T13:49:05;20.60;99.90
21193;DHT22;10754;51.106;7.164;2023-04-25T13:51:31;20.80;99.90
21193;DHT22;10754;51.106;7.164;2023-04-25T13:53:57;20.90;99.90
21193;DHT22;10754;51.106;7.164;2023-04-25T13:56:22;20.60;99.90
21193;DHT22;10754;51.106;7.164;2023-04-25T13:58:52;20.00;99.90
21193;DHT22;10754;51.106;7.164;2023-04-25T14:01:18;19.60;99.90
21193;DHT22;10754;51.106;7.164;2023-04-25T14:03:44;19.30;99.90
21193;DHT22;10754;51.106;7.164;2023-04-25T14:06:10;19.00;99.90
21193;DHT22;10754;51.106;7.164;2023-04-25T14:08:38;18.70;99.90
21193;DHT22;10754;51.106;7.164;2023-04-25T14:11:03;18.40;99.90
21193;DHT22;10754;51.106;7.164;2023-04-25T14:13:29;18.10;99.90
21193;DHT22;10754;51.106;7.164;2023-04-25T14:15:54;18.10;99.90
21193;DHT22;10754;51.106;7.164;2023-04-25T14:18:20;17.90;99.90
21193;DHT22;10754;51.106;7.164;2023-04-25T14:20:46;17.70;99.90
21193;DHT22;10754;51.106;7.164;2023-04-25T14:23:11;18.20;99.90
21193;DHT22;10754;51.106;7.164;2023-04-25T14:25:37;19.30;99.90
21193;DHT22;10754;51.106;7.164;2023-04-25T14:28:03;19.00;99.90
21193;DHT22;10754;51.106;7.164;2023-04-25T14:30:29;18.90;99.90
21193;DHT22;10754;51.106;7.164;2023-04-25T14:32:54;19.50;99.90
21193;DHT22;10754;51.106;7.164;2023-04-25T14:35:20;19.80;99.90
21193;DHT22;10754;51.106;7.164;2023-04-25T14:37:46;18.80;99.90
21193;DHT22;10754;51.106;7.164;2023-04-25T14:40:12;18.30;99.90
21193;DHT22;10754;51.106;7.164;2023-04-25T14:42:40;18.50;99.90
21193;DHT22;10754;51.106;7.164;2023-04-25T14:45:07;18.30;99.90
21193;DHT22;10754;51.106;7.164;2023-04-25T14:47:36;18.00;99.90
21193;DHT22;10754;51.106;7.164;2023-04-25T14:50:02;17.90;99.90
21193;DHT22;10754;51.106;7.164;2023-04-25T14:52:28;17.70;99.90
21193;DHT22;10754;51.106;7.164;2023-04-25T14:54:54;17.60;99.90
21193;DHT22;10754;51.106;7.164;2023-04-25T14:57:19;17.50;99.90
21193;DHT22;10754;51.106;7.164;2023-04-25T14:59:45;17.50;99.90
21193;DHT22;10754;51.106;7.164;2023-04-25T15:02:11;17.40;99.90
21193;DHT22;10754;51.106;7.164;2023-04-25T15:04:36;17.30;99.90
21193;DHT22;10754;51.106;7.164;2023-04-25T15:07:02;17.20;99.90
21193;DHT22;10754;51.106;7.164;2023-04-25T15:09:28;17.10;99.90
21193;DHT22;10754;51.106;7.164;2023-04-25T15:11:53;17.00;99.90
21193;DHT22;10754;51.106;7.164;2023-04-25T15:14:19;17.00;99.90
21193;DHT22;10754;51.106;7.164;2023-04-25T15:16:45;16.90;99.90
21193;DHT22;10754;51.106;7.164;2023-04-25T15:19:10;16.70;99.90
21193;DHT22;10754;51.106;7.164;2023-04-25T15:21:36;16.70;99.90
21193;DHT22;10754;51.106;7.164;2023-04-25T15:24:02;16.50;99.90
21193;DHT22;10754;51.106;7.164;2023-04-25T15:26:28;16.40;99.90
21193;DHT22;10754;51.106;7.164;2023-04-25T15:28:53;16.40;99.90
21193;DHT22;10754;51.106;7.164;2023-04-25T15:31:19;16.30;99.90
21193;DHT22;10754;51.106;7.164;2023-04-25T15:33:44;16.30;99.90
21193;DHT22;10754;51.106;7.164;2023-04-25T15:36:10;16.20;99.90
21193;DHT22;10754;51.106;7.164;2023-04-25T15:38:36;16.20;99.90
21193;DHT22;10754;51.106;7.164;2023-04-25T15:41:02;16.20;99.90
21193;DHT22;10754;51.106;7.164;2023-04-25T15:43:28;16.10;99.90